createdAt,value
2022-12-27T00:00:41.504Z,11.70
2022-12-27T00:03:11.981Z,11.60
2022-12-27T00:05:47.178Z,11.70
2022-12-27T00:08:17.511Z,11.70
2022-12-27T00:10:47.929Z,11.60
2022-12-27T00:13:16.475Z,11.60
2022-12-27T00:15:46.949Z,11.60
2022-12-27T00:18:17.604Z,11.60
2022-12-27T00:20:48.191Z,11.60
2022-12-27T00:23:18.950Z,11.60
2022-12-27T00:28:37.803Z,11.60
2022-12-27T00:31:10.142Z,11.60
2022-12-27T00:33:43.039Z,11.60
2022-12-27T00:36:18.037Z,11.50
2022-12-27T00:38:48.371Z,11.40
2022-12-27T00:41:18.586Z,11.40
2022-12-27T00:43:47.693Z,11.30
2022-12-27T00:46:16.892Z,11.20
2022-12-27T00:48:47.876Z,11.20
2022-12-27T00:51:18.575Z,11.10
2022-12-27T00:56:38.467Z,11.00
2022-12-27T00:59:09.905Z,11.00
2022-12-27T01:01:38.571Z,11.00
2022-12-27T01:04:08.306Z,10.90
2022-12-27T01:06:37.969Z,10.90
2022-12-27T01:11:51.316Z,10.80
2022-12-27T01:14:20.930Z,10.70
2022-12-27T01:16:53.077Z,10.70
2022-12-27T01:19:24.877Z,10.70
2022-12-27T01:24:34.770Z,10.80
2022-12-27T01:27:02.871Z,10.80
2022-12-27T01:29:39.803Z,10.80
2022-12-27T01:32:16.487Z,10.80
2022-12-27T01:34:51.106Z,10.80
2022-12-27T01:37:21.139Z,10.70
2022-12-27T01:39:48.467Z,10.70
2022-12-27T01:42:40.651Z,10.70
2022-12-27T01:45:17.243Z,10.70
2022-12-27T01:48:21.852Z,10.70
2022-12-27T01:51:03.718Z,10.70
2022-12-27T01:53:40.250Z,10.70
2022-12-27T01:56:20.713Z,10.70
2022-12-27T01:59:14.456Z,10.60
2022-12-27T02:01:50.684Z,10.60
2022-12-27T02:04:24.396Z,10.60
2022-12-27T02:06:55.001Z,10.60
2022-12-27T02:09:43.482Z,10.60
2022-12-27T02:12:13.854Z,10.60
2022-12-27T02:14:45.714Z,10.60
2022-12-27T02:17:30.116Z,10.50
2022-12-27T02:20:08.806Z,10.50
2022-12-27T02:23:10.194Z,10.50
2022-12-27T02:26:29.859Z,10.50
2022-12-27T02:29:15.845Z,10.50
2022-12-27T02:31:59.279Z,10.50
2022-12-27T02:34:36.687Z,10.50
2022-12-27T02:37:12.384Z,10.40
2022-12-27T02:39:49.337Z,10.40
2022-12-27T02:42:37.931Z,10.40
2022-12-27T02:45:42.633Z,10.40
2022-12-27T02:48:44.933Z,10.40
2022-12-27T02:52:19.692Z,10.30
2022-12-27T02:55:19.904Z,10.30
2022-12-27T02:58:11.803Z,10.30
2022-12-27T03:01:07.879Z,10.30
2022-12-27T03:03:38.363Z,10.30
2022-12-27T03:06:28.877Z,10.20
2022-12-27T03:09:54.087Z,10.20
2022-12-27T03:13:18.481Z,10.10
2022-12-27T03:16:27.085Z,10.10
2022-12-27T03:19:04.836Z,10.00
2022-12-27T03:22:08.701Z,10.00
2022-12-27T03:25:00.920Z,10.00
2022-12-27T03:27:34.976Z,9.90
2022-12-27T03:30:29.373Z,9.90
2022-12-27T03:33:17.663Z,9.80
2022-12-27T03:36:31.936Z,9.80
2022-12-27T03:39:06.329Z,9.70
2022-12-27T03:42:00.133Z,9.70
2022-12-27T03:44:29.939Z,9.70
2022-12-27T03:47:29.630Z,9.70
2022-12-27T03:50:07.687Z,9.70
2022-12-27T03:52:51.353Z,9.60
2022-12-27T03:55:22.485Z,9.60
2022-12-27T03:57:53.580Z,9.60
2022-12-27T04:00:23.586Z,9.50
2022-12-27T04:02:54.418Z,9.50
2022-12-27T04:05:25.909Z,9.50
2022-12-27T04:08:15.211Z,9.40
2022-12-27T04:11:04.163Z,9.40
2022-12-27T04:13:51.925Z,9.40
2022-12-27T04:16:41.125Z,9.30
2022-12-27T04:19:31.913Z,9.40
2022-12-27T04:22:19.919Z,9.30
2022-12-27T04:25:09.917Z,9.30
2022-12-27T04:27:59.448Z,9.20
2022-12-27T04:30:46.862Z,9.20
2022-12-27T04:33:33.853Z,9.10
2022-12-27T04:36:06.589Z,9.10
2022-12-27T04:38:34.046Z,9.20
2022-12-27T04:41:22.900Z,9.20
2022-12-27T04:44:10.855Z,9.20
2022-12-27T04:46:59.956Z,9.10
2022-12-27T04:49:48.977Z,9.10
2022-12-27T04:52:39.359Z,9.10
2022-12-27T04:55:15.519Z,9.10
2022-12-27T04:57:44.916Z,9.10
2022-12-27T05:00:33.306Z,9.00
2022-12-27T05:03:06.706Z,9.00
2022-12-27T05:05:39.810Z,9.00
2022-12-27T05:08:28.942Z,9.00
2022-12-27T05:11:16.886Z,9.00
2022-12-27T05:14:03.253Z,9.00
2022-12-27T05:16:51.838Z,9.00
2022-12-27T05:19:19.474Z,8.90
2022-12-27T05:22:07.043Z,8.90
2022-12-27T05:24:55.189Z,9.00
2022-12-27T05:27:23.429Z,8.90
2022-12-27T05:29:50.407Z,8.90
2022-12-27T05:32:21.245Z,8.90
2022-12-27T05:34:57.857Z,8.90
2022-12-27T05:37:25.457Z,8.90
2022-12-27T05:42:36.739Z,8.90
2022-12-27T05:45:05.542Z,8.90
2022-12-27T05:47:36.378Z,8.90
2022-12-27T05:50:05.189Z,8.70
2022-12-27T05:52:40.969Z,8.70
2022-12-27T05:55:08.887Z,8.60
2022-12-27T05:57:37.233Z,8.60
2022-12-27T06:00:13.068Z,8.50
2022-12-27T06:02:44.663Z,8.50
2022-12-27T06:05:13.421Z,8.50
2022-12-27T06:07:40.564Z,8.50
2022-12-27T06:10:11.472Z,8.50
2022-12-27T06:12:39.805Z,8.40
2022-12-27T06:15:11.610Z,8.50
2022-12-27T06:20:22.017Z,8.40
2022-12-27T06:22:51.248Z,8.20
2022-12-27T06:25:19.652Z,8.20
2022-12-27T06:30:36.254Z,8.00
2022-12-27T06:33:03.594Z,8.00
2022-12-27T06:38:14.952Z,8.00
2022-12-27T06:43:28.370Z,7.70
2022-12-27T06:46:01.879Z,7.70
2022-12-27T06:51:16.324Z,7.60
2022-12-27T06:53:51.556Z,7.60
2022-12-27T06:56:22.201Z,7.50
2022-12-27T06:58:53.406Z,7.50
2022-12-27T07:01:36.356Z,7.40
2022-12-27T07:04:05.819Z,7.40
2022-12-27T07:09:16.527Z,7.30
2022-12-27T07:11:46.113Z,7.30
2022-12-27T07:14:17.091Z,7.30
2022-12-27T07:16:44.473Z,7.30
2022-12-27T07:19:13.677Z,7.30
2022-12-27T07:21:45.680Z,7.30
2022-12-27T07:24:13.735Z,7.40
2022-12-27T07:26:44.216Z,7.30
2022-12-27T07:29:11.835Z,7.20
2022-12-27T07:31:41.169Z,7.20
2022-12-27T07:34:33.406Z,7.10
2022-12-27T07:37:00.341Z,7.10
2022-12-27T07:39:29.773Z,7.10
2022-12-27T07:44:40.622Z,7.10
2022-12-27T07:47:10.003Z,7.20
2022-12-27T07:49:40.556Z,7.20
2022-12-27T07:52:07.544Z,7.20
2022-12-27T07:54:38.587Z,7.20
2022-12-27T07:57:07.052Z,7.20
2022-12-27T07:59:34.399Z,7.20
2022-12-27T08:02:06.431Z,7.20
2022-12-27T08:04:39.436Z,7.30
2022-12-27T08:07:18.307Z,7.40
2022-12-27T08:09:48.542Z,7.70
2022-12-27T08:12:16.481Z,7.60
2022-12-27T08:14:48.089Z,7.50
2022-12-27T08:17:26.524Z,7.50
2022-12-27T08:19:56.204Z,7.50
2022-12-27T08:22:27.868Z,7.60
2022-12-27T08:24:56.390Z,7.50
2022-12-27T08:27:25.849Z,7.50
2022-12-27T08:29:56.195Z,7.40
2022-12-27T08:32:26.792Z,7.30
2022-12-27T08:35:07.013Z,7.30
2022-12-27T08:37:54.538Z,7.40
2022-12-27T08:40:33.659Z,7.40
2022-12-27T08:43:00.666Z,7.50
2022-12-27T08:45:28.678Z,7.40
2022-12-27T08:48:05.802Z,7.40
2022-12-27T08:50:36.970Z,7.40
2022-12-27T08:53:13.851Z,7.50
2022-12-27T08:55:44.559Z,7.50
2022-12-27T08:58:16.539Z,7.40
2022-12-27T09:00:44.794Z,7.40
2022-12-27T09:03:14.463Z,7.40
2022-12-27T09:05:46.212Z,7.30
2022-12-27T09:11:06.420Z,7.40
2022-12-27T09:13:35.895Z,7.40
2022-12-27T09:16:30.943Z,7.50
2022-12-27T09:19:02.495Z,7.40
2022-12-27T09:21:33.390Z,7.40
2022-12-27T09:24:02.659Z,7.50
2022-12-27T09:26:31.082Z,7.60
2022-12-27T09:31:44.945Z,7.20
2022-12-27T09:34:14.412Z,7.20
2022-12-27T09:36:45.563Z,7.10
2022-12-27T09:39:17.369Z,7.20
2022-12-27T09:42:56.232Z,7.40
2022-12-27T09:45:52.172Z,7.30
2022-12-27T09:48:56.857Z,7.20
2022-12-27T09:51:37.577Z,7.20
2022-12-27T09:54:25.818Z,7.30
2022-12-27T09:57:18.888Z,7.10
2022-12-27T09:59:48.898Z,7.10
2022-12-27T10:02:38.531Z,7.30
2022-12-27T10:05:20.808Z,7.30
2022-12-27T10:08:28.435Z,7.30
2022-12-27T10:11:42.546Z,7.30
2022-12-27T10:14:49.409Z,7.20
2022-12-27T10:17:57.763Z,7.30
2022-12-27T10:20:55.571Z,7.40
2022-12-27T10:23:31.613Z,7.40
2022-12-27T10:26:05.648Z,7.40
2022-12-27T10:29:07.051Z,7.40
2022-12-27T10:31:41.381Z,7.50
2022-12-27T10:34:14.796Z,7.40
2022-12-27T10:36:45.029Z,7.50
2022-12-27T10:39:38.644Z,7.50
2022-12-27T10:42:32.249Z,7.50
2022-12-27T10:45:28.961Z,7.60
2022-12-27T10:48:11.049Z,7.60
2022-12-27T10:50:41.832Z,7.50
2022-12-27T10:53:45.097Z,7.50
2022-12-27T10:56:33.594Z,7.50
2022-12-27T10:59:18.535Z,7.50
2022-12-27T11:02:14.179Z,7.60
2022-12-27T11:05:02.712Z,7.60
2022-12-27T11:07:33.019Z,7.60
2022-12-27T11:10:15.954Z,7.70
2022-12-27T11:13:17.721Z,7.70
2022-12-27T11:15:58.742Z,7.70
2022-12-27T11:18:26.649Z,7.80
2022-12-27T11:21:16.149Z,7.80
2022-12-27T11:23:53.678Z,7.70
2022-12-27T11:26:53.404Z,7.70
2022-12-27T11:29:26.090Z,7.70
2022-12-27T11:31:55.467Z,7.70
2022-12-27T11:34:56.846Z,7.70
2022-12-27T11:37:27.504Z,7.80
2022-12-27T11:40:13.135Z,7.80
2022-12-27T11:42:48.181Z,7.70
2022-12-27T11:45:26.408Z,7.70
2022-12-27T11:48:04.674Z,7.70
2022-12-27T11:51:08.182Z,7.60
2022-12-27T11:53:58.255Z,7.70
2022-12-27T11:56:39.429Z,7.90
2022-12-27T11:59:34.721Z,7.80
2022-12-27T12:02:31.870Z,7.80
2022-12-27T12:05:25.569Z,7.60
2022-12-27T12:08:22.828Z,7.60
2022-12-27T12:11:31.261Z,7.70
2022-12-27T12:14:37.460Z,7.70
2022-12-27T12:17:36.108Z,7.80
2022-12-27T12:20:26.907Z,7.90
2022-12-27T12:23:35.248Z,7.90
2022-12-27T12:26:25.974Z,7.80
2022-12-27T12:29:29.827Z,7.70
2022-12-27T12:32:12.493Z,7.70
2022-12-27T12:35:24.086Z,7.70
2022-12-27T12:38:44.286Z,7.70
2022-12-27T12:41:51.978Z,7.70
2022-12-27T12:44:46.410Z,7.60
2022-12-27T12:47:48.727Z,7.70
2022-12-27T12:50:32.547Z,7.60
2022-12-27T12:53:44.187Z,7.60
2022-12-27T12:56:44.150Z,7.70
2022-12-27T12:59:52.548Z,7.70
2022-12-27T13:02:55.278Z,7.80
2022-12-27T13:05:46.656Z,7.70
2022-12-27T13:09:07.714Z,7.70
2022-12-27T13:12:02.761Z,7.70
2022-12-27T13:15:24.286Z,7.90
2022-12-27T13:18:22.740Z,8.00
2022-12-27T13:21:43.565Z,8.00
2022-12-27T13:24:50.122Z,8.10
2022-12-27T13:27:56.218Z,8.20
2022-12-27T13:30:34.319Z,9.00
2022-12-27T13:33:27.786Z,10.10
2022-12-27T13:36:32.686Z,12.00
2022-12-27T13:39:35.431Z,12.80
2022-12-27T13:42:44.233Z,13.60
2022-12-27T13:45:44.063Z,13.70
2022-12-27T13:48:53.887Z,12.10
2022-12-27T13:52:00.348Z,12.80
2022-12-27T13:55:09.588Z,11.50
2022-12-27T13:58:19.141Z,10.90
2022-12-27T14:01:19.992Z,10.90
2022-12-27T14:04:26.088Z,9.90
2022-12-27T14:07:14.085Z,9.50
2022-12-27T14:10:17.738Z,9.30
2022-12-27T14:13:01.692Z,9.00
2022-12-27T14:15:53.926Z,8.60
2022-12-27T14:18:28.459Z,8.30
2022-12-27T14:21:34.134Z,8.10
2022-12-27T14:24:49.167Z,8.00
2022-12-27T14:27:37.261Z,7.90
2022-12-27T14:30:34.660Z,7.70
2022-12-27T14:33:35.288Z,7.60
2022-12-27T14:36:46.336Z,7.60
2022-12-27T14:40:03.066Z,7.50
2022-12-27T14:45:57.845Z,7.30
2022-12-27T14:48:55.084Z,7.20
2022-12-27T14:52:12.316Z,7.20
2022-12-27T14:55:16.329Z,7.00
2022-12-27T14:58:27.985Z,6.90
2022-12-27T15:01:21.271Z,6.90
2022-12-27T15:04:30.234Z,6.80
2022-12-27T15:07:38.366Z,6.80
2022-12-27T15:10:33.828Z,6.70
2022-12-27T15:13:19.205Z,6.70
2022-12-27T15:16:14.836Z,6.60
2022-12-27T15:19:04.208Z,6.50
2022-12-27T15:21:54.684Z,6.50
2022-12-27T15:24:38.658Z,6.40
2022-12-27T15:27:33.748Z,6.30
2022-12-27T15:30:34.818Z,6.20
2022-12-27T15:33:11.641Z,6.20
2022-12-27T15:36:15.577Z,6.20
2022-12-27T15:39:01.209Z,6.10
2022-12-27T15:42:02.494Z,6.00
2022-12-27T15:45:04.376Z,6.00
2022-12-27T15:47:54.496Z,5.90
2022-12-27T15:50:51.655Z,5.80
2022-12-27T15:53:48.825Z,5.80
2022-12-27T15:56:55.363Z,5.80
2022-12-27T15:59:56.356Z,5.70
2022-12-27T16:02:51.373Z,5.50
2022-12-27T16:05:22.595Z,5.50
2022-12-27T16:08:18.968Z,5.50
2022-12-27T16:10:49.665Z,5.50
2022-12-27T16:13:48.481Z,5.50
2022-12-27T16:16:40.153Z,5.50
2022-12-27T16:19:36.869Z,5.50
2022-12-27T16:22:54.138Z,5.50
2022-12-27T16:25:34.687Z,5.40
2022-12-27T16:28:23.937Z,5.40
2022-12-27T16:30:55.085Z,5.30
2022-12-27T16:33:38.498Z,5.20
2022-12-27T16:36:21.649Z,5.20
2022-12-27T16:38:54.776Z,5.10
2022-12-27T16:41:56.989Z,5.10
2022-12-27T16:44:45.837Z,5.00
2022-12-27T16:47:39.583Z,5.00
2022-12-27T16:50:56.137Z,5.00
2022-12-27T16:53:44.512Z,5.00
2022-12-27T16:56:34.441Z,4.90
2022-12-27T16:59:05.766Z,4.90
2022-12-27T17:01:55.495Z,4.90
2022-12-27T17:04:52.995Z,4.90
2022-12-27T17:08:09.951Z,4.90
2022-12-27T17:11:02.492Z,4.90
2022-12-27T17:14:03.600Z,4.90
2022-12-27T17:16:54.777Z,4.80
2022-12-27T17:19:51.231Z,4.70
2022-12-27T17:22:21.158Z,4.60
2022-12-27T17:24:51.783Z,4.50
2022-12-27T17:27:52.591Z,4.40
2022-12-27T17:30:39.569Z,4.30
2022-12-27T17:33:55.770Z,4.30
2022-12-27T17:37:10.048Z,4.00
2022-12-27T17:39:54.252Z,4.00
2022-12-27T17:43:04.680Z,4.00
2022-12-27T17:45:58.761Z,3.90
2022-12-27T17:48:30.846Z,3.80
2022-12-27T17:51:05.115Z,3.80
2022-12-27T17:53:53.211Z,3.70
2022-12-27T17:56:45.137Z,3.60
2022-12-27T17:59:24.641Z,3.60
2022-12-27T18:02:14.735Z,3.40
2022-12-27T18:04:50.681Z,3.50
2022-12-27T18:07:32.694Z,3.50
2022-12-27T18:10:24.438Z,3.50
2022-12-27T18:13:03.158Z,3.40
2022-12-27T18:15:38.867Z,3.30
2022-12-27T18:18:09.695Z,3.30
2022-12-27T18:20:41.193Z,3.30
2022-12-27T18:23:16.847Z,3.30
2022-12-27T18:25:52.218Z,3.30
2022-12-27T18:28:33.732Z,3.20
2022-12-27T18:31:26.835Z,3.20
2022-12-27T18:34:09.904Z,3.20
2022-12-27T18:37:02.854Z,3.10
2022-12-27T18:39:54.463Z,3.10
2022-12-27T18:42:47.864Z,3.10
2022-12-27T18:45:33.208Z,3.10
2022-12-27T18:48:02.537Z,3.00
2022-12-27T18:50:34.199Z,3.00
2022-12-27T18:53:26.216Z,3.00
2022-12-27T18:56:20.622Z,2.90
2022-12-27T18:59:33.116Z,3.00
2022-12-27T19:02:25.354Z,2.90
2022-12-27T19:05:26.473Z,2.90
2022-12-27T19:08:11.346Z,2.90
2022-12-27T19:10:49.321Z,3.00
2022-12-27T19:13:30.069Z,2.90
2022-12-27T19:15:59.572Z,2.80
2022-12-27T19:18:33.214Z,3.00
2022-12-27T19:21:11.461Z,2.90
2022-12-27T19:23:43.237Z,3.00
2022-12-27T19:26:19.365Z,3.00
2022-12-27T19:29:15.645Z,3.00
2022-12-27T19:32:07.427Z,3.10
2022-12-27T19:34:50.530Z,3.00
2022-12-27T19:37:19.820Z,3.10
2022-12-27T19:39:48.759Z,3.00
2022-12-27T19:42:21.115Z,3.00
2022-12-27T19:44:56.687Z,3.00
2022-12-27T19:47:27.386Z,3.00
2022-12-27T19:49:55.009Z,2.90
2022-12-27T19:52:26.919Z,2.90
2022-12-27T19:55:08.390Z,2.80
2022-12-27T19:57:36.491Z,2.90
2022-12-27T20:00:17.118Z,2.80
2022-12-27T20:02:48.567Z,2.70
2022-12-27T20:05:17.210Z,2.70
2022-12-27T20:08:10.177Z,2.70
2022-12-27T20:10:41.445Z,2.70
2022-12-27T20:13:11.292Z,2.80
2022-12-27T20:15:41.078Z,2.70
2022-12-27T20:18:09.202Z,2.60
2022-12-27T20:23:24.734Z,2.70
2022-12-27T20:25:55.003Z,2.70
2022-12-27T20:28:23.361Z,2.70
2022-12-27T20:30:51.324Z,2.60
2022-12-27T20:33:20.875Z,2.60
2022-12-27T20:35:59.473Z,2.60
2022-12-27T20:38:32.342Z,2.60
2022-12-27T20:41:28.201Z,2.60
2022-12-27T20:44:02.102Z,2.70
2022-12-27T20:46:30.933Z,2.70
2022-12-27T20:49:02.549Z,2.70
2022-12-27T20:51:33.744Z,2.70
2022-12-27T20:54:03.016Z,2.60
2022-12-27T20:56:33.097Z,2.60
2022-12-27T20:59:05.132Z,2.60
2022-12-27T21:01:33.502Z,2.60
2022-12-27T21:04:03.952Z,2.50
2022-12-27T21:06:33.598Z,2.40
2022-12-27T21:09:02.815Z,2.50
2022-12-27T21:11:32.285Z,2.40
2022-12-27T21:14:03.157Z,2.40
2022-12-27T21:16:32.664Z,2.40
2022-12-27T21:19:07.469Z,2.40
2022-12-27T21:21:38.109Z,2.40
2022-12-27T21:24:11.339Z,2.30
2022-12-27T21:26:40.956Z,2.30
2022-12-27T21:29:10.687Z,2.30
2022-12-27T21:31:40.399Z,2.30
2022-12-27T21:34:11.332Z,2.30
2022-12-27T21:36:40.850Z,2.20
2022-12-27T21:39:08.710Z,2.20
2022-12-27T21:41:39.793Z,2.20
2022-12-27T21:44:08.323Z,2.10
2022-12-27T21:46:39.253Z,2.10
2022-12-27T21:49:15.081Z,2.00
2022-12-27T21:51:43.984Z,2.10
2022-12-27T21:54:14.709Z,2.00
2022-12-27T21:56:43.852Z,2.00
2022-12-27T21:59:14.937Z,2.00
2022-12-27T22:04:26.015Z,1.90
2022-12-27T22:06:56.284Z,1.90
2022-12-27T22:09:26.738Z,1.80
2022-12-27T22:11:56.910Z,1.90
2022-12-27T22:14:25.866Z,1.80
2022-12-27T22:17:00.732Z,1.80
2022-12-27T22:19:28.718Z,1.50
2022-12-27T22:21:57.946Z,1.60
2022-12-27T22:24:25.972Z,1.60
2022-12-27T22:26:56.521Z,1.40
2022-12-27T22:29:30.416Z,1.40
2022-12-27T22:32:04.748Z,1.40
2022-12-27T22:34:33.329Z,1.50
2022-12-27T22:37:01.933Z,1.40
2022-12-27T22:39:31.994Z,1.40
2022-12-27T22:41:58.936Z,1.50
2022-12-27T22:44:26.348Z,1.50
2022-12-27T22:49:47.875Z,1.50
2022-12-27T22:52:17.182Z,1.30
2022-12-27T22:55:04.173Z,1.20
2022-12-27T22:57:36.173Z,1.10
2022-12-27T23:00:06.220Z,1.20
2022-12-27T23:02:34.965Z,1.10
2022-12-27T23:05:03.360Z,1.10
2022-12-27T23:13:00.851Z,1.20
2022-12-27T23:15:29.167Z,1.10
2022-12-27T23:17:59.098Z,1.10
2022-12-27T23:20:27.598Z,1.00
2022-12-27T23:22:57.583Z,1.10
2022-12-27T23:25:26.014Z,1.00
2022-12-27T23:27:56.700Z,1.00
2022-12-27T23:30:26.641Z,1.00
2022-12-27T23:32:57.251Z,1.00
2022-12-27T23:35:28.546Z,1.00
2022-12-27T23:37:59.438Z,0.80
2022-12-27T23:40:30.506Z,0.80
2022-12-27T23:43:12.465Z,0.80
2022-12-27T23:45:46.311Z,0.70
2022-12-27T23:48:16.061Z,0.90
2022-12-27T23:50:46.959Z,0.80
2022-12-27T23:53:16.294Z,0.70
2022-12-27T23:55:44.549Z,0.70
2022-12-27T23:58:12.521Z,0.70
